Kissimmee Gateway Airport
KISM : now visible

Airfield :











YOU CAN JOIN US ON...

 
LOGIN :

Register | Disclaimer

   EN    FR    IT 

 









Legend :    VFR   Marginal VFR   IFR   Intensive IFR   Very Intensive IFR
Visi :
Ceiling :
>= 8 km
>= 3000ft
5 to 8 km
1000 to 3000 ft
1500m to 5 km
500 to 1000 ft
800 to 1500m
200 to 500 ft
< 800m
< 200 ft
Symbols :   Thunderstorms  Fog  Heavy snow  Heavy precipitations  Wind > 20 kt






- Airport Elevation : 82 ft


KISM - Kissimmee Gateway

CURRENT METAR :
  • 271456Z 28006KT 10SM CLR 31/18 A3004 RMK AO2 SLP173 T03110178 51019 $

EXPIRED METARs :
  • 271356Z 25005KT 10SM CLR 29/20 A3002 RMK AO2 SLP166 T02940200 $
  • 271256Z 29006KT 10SM CLR 27/22 A3001 RMK AO2 SLP162 T02720217 $
  • 271156Z 29003KT 10SM CLR 24/22 A2999 RMK AO2 SLP154 T02440217 10250 20222 53014 $
  • 271056Z AUTO 00000KT 10SM CLR 22/21 A2998 RMK AO2 SLP150 T02220206 $

TAF KISM
Valid from the 27 at 12:00 until the 28 at 12:00 UTC


271120Z 2712/2812 27005KT P6SM SKC
FM271400 25006KT P6SM FEW250
FM272000 23010KT P6SM FEW080 FEW250
FM280200 26006KT P6SM SCT200
KZMA FIR / North America



MET'MAP, your aeronautical weather chart ! - Copyright ORBIFLY December 2007 - Disclaimer

ORBIFLY MET'MAP TEAM :

Programming & Development : Alexandra Zaïnal
Original concept : Baudouin d'Aumeries
Technical & hardware support : Manuel Goepfert
Assistance : Marc-Olivier Méhu




SOURCES & CREDITS :

   NOAA       Earth
Advisory